sensor_id;sensor_type;location;lat;lon;timestamp;pressure;altitude;pressure_sealevel;temperature;humidity
141;BME280;65;48.778;9.160;2023-08-31T00:00:01;97977.31;;;13.19;100.00
141;BME280;65;48.778;9.160;2023-08-31T00:02:50;97987.22;;;13.17;100.00
141;BME280;65;48.778;9.160;2023-08-31T00:05:42;97985.50;;;13.16;100.00
141;BME280;65;48.778;9.160;2023-08-31T00:08:28;97988.38;;;13.13;100.00
141;BME280;65;48.778;9.160;2023-08-31T00:11:14;97978.28;;;13.18;100.00
141;BME280;65;48.778;9.160;2023-08-31T00:14:00;97983.06;;;13.13;100.00
141;BME280;65;48.778;9.160;2023-08-31T00:16:46;97983.31;;;13.10;100.00
141;BME280;65;48.778;9.160;2023-08-31T00:19:31;97984.28;;;13.09;100.00
141;BME280;65;48.778;9.160;2023-08-31T00:22:17;97993.81;;;13.11;100.00
141;BME280;65;48.778;9.160;2023-08-31T00:25:06;97999.47;;;13.07;100.00
141;BME280;65;48.778;9.160;2023-08-31T00:27:54;97999.97;;;13.12;100.00
141;BME280;65;48.778;9.160;2023-08-31T00:30:40;98002.34;;;13.04;100.00
141;BME280;65;48.778;9.160;2023-08-31T00:33:26;98004.03;;;13.05;100.00
141;BME280;65;48.778;9.160;2023-08-31T00:36:12;98010.06;;;13.07;100.00
141;BME280;65;48.778;9.160;2023-08-31T00:38:58;98007.19;;;13.10;100.00
141;BME280;65;48.778;9.160;2023-08-31T00:41:47;98014.78;;;13.14;100.00
141;BME280;65;48.778;9.160;2023-08-31T00:44:33;98021.31;;;13.10;100.00
141;BME280;65;48.778;9.160;2023-08-31T00:47:19;98016.69;;;13.01;100.00
141;BME280;65;48.778;9.160;2023-08-31T00:50:06;98016.06;;;12.86;100.00
141;BME280;65;48.778;9.160;2023-08-31T00:52:53;98013.13;;;12.78;100.00
141;BME280;65;48.778;9.160;2023-08-31T00:55:39;98018.91;;;12.72;100.00
141;BME280;65;48.778;9.160;2023-08-31T00:58:25;98011.25;;;12.67;100.00
141;BME280;65;48.778;9.160;2023-08-31T01:13:07;97998.88;;;12.44;100.00
141;BME280;65;48.778;9.160;2023-08-31T01:16:00;98009.91;;;12.38;100.00
141;BME280;65;48.778;9.160;2023-08-31T01:18:49;98012.06;;;12.33;100.00
141;BME280;65;48.778;9.160;2023-08-31T01:21:38;98009.97;;;12.25;100.00
141;BME280;65;48.778;9.160;2023-08-31T01:24:26;98012.28;;;12.30;100.00
141;BME280;65;48.778;9.160;2023-08-31T01:27:12;98012.00;;;12.22;100.00
141;BME280;65;48.778;9.160;2023-08-31T01:29:58;98015.22;;;12.14;100.00
141;BME280;65;48.778;9.160;2023-08-31T01:32:45;98018.28;;;12.08;100.00
141;BME280;65;48.778;9.160;2023-08-31T01:35:46;98028.34;;;12.03;100.00
141;BME280;65;48.778;9.160;2023-08-31T01:38:38;98021.38;;;12.02;100.00
141;BME280;65;48.778;9.160;2023-08-31T01:41:28;98027.31;;;11.93;100.00
141;BME280;65;48.778;9.160;2023-08-31T01:44:15;98024.88;;;11.90;100.00
141;BME280;65;48.778;9.160;2023-08-31T01:47:06;98036.75;;;11.84;100.00
141;BME280;65;48.778;9.160;2023-08-31T01:49:52;98046.50;;;11.84;100.00
141;BME280;65;48.778;9.160;2023-08-31T01:52:38;98043.97;;;11.82;100.00
141;BME280;65;48.778;9.160;2023-08-31T01:55:24;98046.28;;;11.87;100.00
141;BME280;65;48.778;9.160;2023-08-31T01:58:10;98046.16;;;12.01;100.00
141;BME280;65;48.778;9.160;2023-08-31T02:00:56;98046.66;;;12.19;100.00
141;BME280;65;48.778;9.160;2023-08-31T02:03:42;98047.59;;;12.30;100.00
141;BME280;65;48.778;9.160;2023-08-31T02:06:28;98039.69;;;12.42;100.00
141;BME280;65;48.778;9.160;2023-08-31T02:09:14;98028.13;;;12.43;100.00
141;BME280;65;48.778;9.160;2023-08-31T02:12:00;98036.09;;;12.43;100.00
141;BME280;65;48.778;9.160;2023-08-31T02:14:46;98030.44;;;12.47;100.00
141;BME280;65;48.778;9.160;2023-08-31T02:17:32;98038.06;;;12.52;100.00
141;BME280;65;48.778;9.160;2023-08-31T02:20:17;98040.47;;;12.55;100.00
141;BME280;65;48.778;9.160;2023-08-31T02:23:05;98039.75;;;12.53;100.00
141;BME280;65;48.778;9.160;2023-08-31T02:25:51;98041.44;;;12.54;100.00
141;BME280;65;48.778;9.160;2023-08-31T02:28:37;98043.75;;;12.58;100.00
141;BME280;65;48.778;9.160;2023-08-31T02:31:22;98041.84;;;12.60;100.00
141;BME280;65;48.778;9.160;2023-08-31T02:37:50;98049.31;;;12.79;100.00
141;BME280;65;48.778;9.160;2023-08-31T02:40:36;98052.06;;;12.78;100.00
141;BME280;65;48.778;9.160;2023-08-31T02:43:22;98062.84;;;12.87;100.00
141;BME280;65;48.778;9.160;2023-08-31T02:46:08;98063.09;;;12.95;100.00
141;BME280;65;48.778;9.160;2023-08-31T02:48:53;98062.63;;;13.02;100.00
141;BME280;65;48.778;9.160;2023-08-31T02:51:39;98071.56;;;13.01;100.00
141;BME280;65;48.778;9.160;2023-08-31T02:54:25;98069.25;;;12.96;100.00
141;BME280;65;48.778;9.160;2023-08-31T02:57:11;98068.19;;;12.98;100.00
141;BME280;65;48.778;9.160;2023-08-31T02:59:56;98062.13;;;12.96;100.00
141;BME280;65;48.778;9.160;2023-08-31T03:02:42;98056.94;;;12.95;100.00
141;BME280;65;48.778;9.160;2023-08-31T03:05:29;98066.22;;;12.89;100.00
141;BME280;65;48.778;9.160;2023-08-31T03:08:15;98071.88;;;12.85;100.00
141;BME280;65;48.778;9.160;2023-08-31T03:11:02;98063.75;;;12.75;100.00
141;BME280;65;48.778;9.160;2023-08-31T03:13:48;98056.44;;;12.66;100.00
141;BME280;65;48.778;9.160;2023-08-31T03:16:34;98070.88;;;12.62;100.00
141;BME280;65;48.778;9.160;2023-08-31T03:19:20;98068.22;;;12.62;100.00
141;BME280;65;48.778;9.160;2023-08-31T03:22:05;98074.50;;;12.61;100.00
141;BME280;65;48.778;9.160;2023-08-31T03:24:51;98078.44;;;12.55;100.00
141;BME280;65;48.778;9.160;2023-08-31T03:27:37;98090.06;;;12.42;100.00
141;BME280;65;48.778;9.160;2023-08-31T03:30:22;98083.28;;;12.38;100.00
141;BME280;65;48.778;9.160;2023-08-31T03:33:08;98083.72;;;12.31;100.00
141;BME280;65;48.778;9.160;2023-08-31T03:36:00;98069.22;;;12.24;100.00
141;BME280;65;48.778;9.160;2023-08-31T03:38:45;98075.91;;;12.17;100.00
141;BME280;65;48.778;9.160;2023-08-31T03:41:31;98070.19;;;12.11;100.00
141;BME280;65;48.778;9.160;2023-08-31T03:44:17;98074.53;;;12.12;100.00
141;BME280;65;48.778;9.160;2023-08-31T03:47:03;98078.47;;;12.06;100.00
141;BME280;65;48.778;9.160;2023-08-31T03:49:49;98081.97;;;12.07;100.00
141;BME280;65;48.778;9.160;2023-08-31T03:52:34;98090.75;;;12.07;100.00
141;BME280;65;48.778;9.160;2023-08-31T03:55:20;98100.28;;;12.10;100.00
141;BME280;65;48.778;9.160;2023-08-31T03:58:06;98093.63;;;12.17;100.00
141;BME280;65;48.778;9.160;2023-08-31T04:00:52;98099.44;;;12.22;100.00
141;BME280;65;48.778;9.160;2023-08-31T04:03:37;98106.22;;;12.26;100.00
141;BME280;65;48.778;9.160;2023-08-31T04:06:23;98109.38;;;12.31;100.00
141;BME280;65;48.778;9.160;2023-08-31T04:09:09;98106.19;;;12.39;100.00
141;BME280;65;48.778;9.160;2023-08-31T04:11:54;98108.31;;;12.33;100.00
141;BME280;65;48.778;9.160;2023-08-31T04:14:40;98108.84;;;12.26;100.00
141;BME280;65;48.778;9.160;2023-08-31T04:17:26;98101.56;;;12.17;100.00
141;BME280;65;48.778;9.160;2023-08-31T04:20:12;98095.41;;;12.16;100.00
141;BME280;65;48.778;9.160;2023-08-31T04:22:57;98097.63;;;12.10;100.00
141;BME280;65;48.778;9.160;2023-08-31T04:25:44;98109.28;;;12.07;100.00
141;BME280;65;48.778;9.160;2023-08-31T04:28:29;98108.34;;;12.08;100.00
141;BME280;65;48.778;9.160;2023-08-31T04:31:15;98111.72;;;12.10;100.00
141;BME280;65;48.778;9.160;2023-08-31T04:34:01;98117.03;;;12.10;100.00
141;BME280;65;48.778;9.160;2023-08-31T04:36:47;98119.38;;;12.15;100.00
141;BME280;65;48.778;9.160;2023-08-31T04:39:33;98125.94;;;12.09;100.00
141;BME280;65;48.778;9.160;2023-08-31T04:42:19;98118.94;;;12.08;100.00
141;BME280;65;48.778;9.160;2023-08-31T04:45:05;98125.94;;;12.09;100.00
141;BME280;65;48.778;9.160;2023-08-31T04:47:51;98127.50;;;12.12;100.00
141;BME280;65;48.778;9.160;2023-08-31T04:50:37;98129.03;;;12.16;100.00
141;BME280;65;48.778;9.160;2023-08-31T04:53:22;98132.06;;;12.10;100.00
141;BME280;65;48.778;9.160;2023-08-31T04:56:08;98131.97;;;12.11;100.00
141;BME280;65;48.778;9.160;2023-08-31T04:58:54;98135.28;;;12.15;100.00
141;BME280;65;48.778;9.160;2023-08-31T05:01:39;98136.31;;;12.12;100.00
141;BME280;65;48.778;9.160;2023-08-31T05:04:25;98140.97;;;12.09;100.00
141;BME280;65;48.778;9.160;2023-08-31T05:07:11;98140.00;;;12.10;100.00
141;BME280;65;48.778;9.160;2023-08-31T05:09:57;98144.56;;;12.08;100.00
141;BME280;65;48.778;9.160;2023-08-31T05:12:42;98151.34;;;12.12;100.00
141;BME280;65;48.778;9.160;2023-08-31T05:15:28;98158.06;;;12.17;100.00
141;BME280;65;48.778;9.160;2023-08-31T05:18:14;98155.50;;;12.28;100.00
141;BME280;65;48.778;9.160;2023-08-31T05:21:00;98154.28;;;12.45;100.00
141;BME280;65;48.778;9.160;2023-08-31T05:23:45;98157.75;;;12.58;100.00
141;BME280;65;48.778;9.160;2023-08-31T05:26:31;98165.16;;;12.66;100.00
141;BME280;65;48.778;9.160;2023-08-31T05:29:17;98169.59;;;12.78;100.00
141;BME280;65;48.778;9.160;2023-08-31T05:32:03;98176.31;;;12.95;100.00
141;BME280;65;48.778;9.160;2023-08-31T05:34:49;98179.16;;;13.05;100.00
141;BME280;65;48.778;9.160;2023-08-31T05:37:34;98179.44;;;13.13;100.00
141;BME280;65;48.778;9.160;2023-08-31T05:40:21;98177.19;;;13.19;100.00
141;BME280;65;48.778;9.160;2023-08-31T05:43:07;98168.91;;;13.24;100.00
141;BME280;65;48.778;9.160;2023-08-31T05:45:53;98182.59;;;13.31;100.00
141;BME280;65;48.778;9.160;2023-08-31T05:48:38;98178.63;;;13.36;100.00
141;BME280;65;48.778;9.160;2023-08-31T05:51:24;98186.88;;;13.44;100.00
141;BME280;65;48.778;9.160;2023-08-31T05:54:10;98183.63;;;13.52;100.00
141;BME280;65;48.778;9.160;2023-08-31T05:56:58;98195.00;;;13.54;100.00
141;BME280;65;48.778;9.160;2023-08-31T05:59:44;98192.63;;;13.38;100.00
141;BME280;65;48.778;9.160;2023-08-31T06:02:30;98188.31;;;13.48;100.00
141;BME280;65;48.778;9.160;2023-08-31T06:05:15;98189.44;;;13.57;100.00
141;BME280;65;48.778;9.160;2023-08-31T06:08:05;98187.63;;;13.57;100.00
141;BME280;65;48.778;9.160;2023-08-31T06:10:51;98195.47;;;13.59;100.00
141;BME280;65;48.778;9.160;2023-08-31T06:13:37;98195.63;;;13.69;100.00
141;BME280;65;48.778;9.160;2023-08-31T06:16:23;98199.38;;;13.66;100.00
141;BME280;65;48.778;9.160;2023-08-31T06:19:09;98201.31;;;13.75;100.00
141;BME280;65;48.778;9.160;2023-08-31T06:21:55;98203.63;;;13.80;100.00
141;BME280;65;48.778;9.160;2023-08-31T06:24:40;98205.63;;;13.89;100.00
141;BME280;65;48.778;9.160;2023-08-31T06:27:27;98208.44;;;14.10;100.00
141;BME280;65;48.778;9.160;2023-08-31T06:30:13;98215.94;;;14.16;100.00
141;BME280;65;48.778;9.160;2023-08-31T06:33:01;98214.59;;;14.21;100.00
141;BME280;65;48.778;9.160;2023-08-31T06:35:47;98205.78;;;14.21;100.00
141;BME280;65;48.778;9.160;2023-08-31T06:38:37;98219.44;;;14.39;100.00
141;BME280;65;48.778;9.160;2023-08-31T06:41:22;98224.31;;;14.45;100.00
141;BME280;65;48.778;9.160;2023-08-31T06:44:08;98222.91;;;14.52;100.00
141;BME280;65;48.778;9.160;2023-08-31T06:46:54;98228.22;;;14.74;100.00
141;BME280;65;48.778;9.160;2023-08-31T06:49:40;98233.97;;;15.13;100.00
141;BME280;65;48.778;9.160;2023-08-31T06:52:26;98226.44;;;15.29;100.00
141;BME280;65;48.778;9.160;2023-08-31T06:55:12;98237.13;;;15.50;100.00
141;BME280;65;48.778;9.160;2023-08-31T06:57:58;98223.06;;;16.12;100.00
141;BME280;65;48.778;9.160;2023-08-31T07:00:44;98224.91;;;16.32;100.00
141;BME280;65;48.778;9.160;2023-08-31T07:03:29;98225.84;;;16.52;95.74
141;BME280;65;48.778;9.160;2023-08-31T07:06:15;98222.69;;;16.37;95.36
141;BME280;65;48.778;9.160;2023-08-31T07:09:01;98228.00;;;16.17;99.13
141;BME280;65;48.778;9.160;2023-08-31T07:11:47;98229.84;;;16.16;95.09
141;BME280;65;48.778;9.160;2023-08-31T07:14:33;98234.66;;;16.22;97.17
141;BME280;65;48.778;9.160;2023-08-31T07:17:19;98235.78;;;16.20;98.37
141;BME280;65;48.778;9.160;2023-08-31T07:20:05;98243.72;;;16.31;97.68
141;BME280;65;48.778;9.160;2023-08-31T07:22:51;98249.22;;;16.39;92.17
141;BME280;65;48.778;9.160;2023-08-31T07:25:37;98248.69;;;16.45;90.65
141;BME280;65;48.778;9.160;2023-08-31T07:28:23;98250.44;;;16.56;94.15
141;BME280;65;48.778;9.160;2023-08-31T07:31:09;98256.72;;;16.75;89.17
141;BME280;65;48.778;9.160;2023-08-31T07:33:55;98252.97;;;16.57;88.14
141;BME280;65;48.778;9.160;2023-08-31T07:36:40;98261.00;;;16.36;87.45
141;BME280;65;48.778;9.160;2023-08-31T07:39:27;98263.00;;;16.44;89.44
141;BME280;65;48.778;9.160;2023-08-31T07:42:13;98272.03;;;16.73;90.65
141;BME280;65;48.778;9.160;2023-08-31T07:44:59;98259.13;;;17.09;85.73
141;BME280;65;48.778;9.160;2023-08-31T07:47:44;98252.22;;;17.06;84.04
141;BME280;65;48.778;9.160;2023-08-31T07:50:30;98262.91;;;17.06;83.00
141;BME280;65;48.778;9.160;2023-08-31T07:53:16;98266.31;;;17.18;78.67
141;BME280;65;48.778;9.160;2023-08-31T07:56:02;98271.66;;;17.18;81.36
141;BME280;65;48.778;9.160;2023-08-31T07:58:49;98266.19;;;17.29;74.32
141;BME280;65;48.778;9.160;2023-08-31T08:01:35;98275.63;;;17.33;72.41
141;BME280;65;48.778;9.160;2023-08-31T08:04:21;98273.72;;;17.55;76.18
141;BME280;65;48.778;9.160;2023-08-31T08:07:06;98275.19;;;17.68;67.13
141;BME280;65;48.778;9.160;2023-08-31T08:09:52;98261.63;;;17.60;67.65
141;BME280;65;48.778;9.160;2023-08-31T08:12:42;98263.94;;;17.75;68.86
141;BME280;65;48.778;9.160;2023-08-31T08:15:31;98260.13;;;18.16;65.78
141;BME280;65;48.778;9.160;2023-08-31T08:18:17;98272.53;;;18.83;59.96
141;BME280;65;48.778;9.160;2023-08-31T08:21:03;98271.47;;;18.56;63.23
141;BME280;65;48.778;9.160;2023-08-31T08:23:49;98277.75;;;18.84;59.98
141;BME280;65;48.778;9.160;2023-08-31T08:26:36;98275.69;;;18.49;64.44
141;BME280;65;48.778;9.160;2023-08-31T08:29:22;98278.28;;;18.22;61.34
141;BME280;65;48.778;9.160;2023-08-31T08:32:07;98278.72;;;18.17;64.87
141;BME280;65;48.778;9.160;2023-08-31T08:34:54;98283.03;;;20.39;58.41
141;BME280;65;48.778;9.160;2023-08-31T08:37:40;98285.16;;;22.47;51.09
141;BME280;65;48.778;9.160;2023-08-31T08:40:26;98287.78;;;23.90;45.57
141;BME280;65;48.778;9.160;2023-08-31T08:43:13;98284.09;;;24.37;41.81
141;BME280;65;48.778;9.160;2023-08-31T08:46:04;98279.50;;;24.98;41.23
141;BME280;65;48.778;9.160;2023-08-31T08:48:50;98285.50;;;22.60;41.98
141;BME280;65;48.778;9.160;2023-08-31T08:51:37;98292.47;;;20.95;46.66
141;BME280;65;48.778;9.160;2023-08-31T08:54:22;98301.19;;;19.74;50.38
141;BME280;65;48.778;9.160;2023-08-31T08:57:08;98299.78;;;19.06;53.89
141;BME280;65;48.778;9.160;2023-08-31T08:59:54;98304.75;;;19.10;55.07
141;BME280;65;48.778;9.160;2023-08-31T09:02:40;98295.28;;;20.24;51.28
141;BME280;65;48.778;9.160;2023-08-31T09:05:26;98292.50;;;20.77;50.64
141;BME280;65;48.778;9.160;2023-08-31T09:08:12;98307.34;;;24.15;45.44
141;BME280;65;48.778;9.160;2023-08-31T09:10:59;98307.94;;;25.23;39.76
141;BME280;65;48.778;9.160;2023-08-31T09:13:45;98304.16;;;23.49;40.54
141;BME280;65;48.778;9.160;2023-08-31T09:16:31;98310.41;;;22.46;46.99
141;BME280;65;48.778;9.160;2023-08-31T09:19:21;98311.44;;;22.85;47.11
141;BME280;65;48.778;9.160;2023-08-31T09:22:10;98319.31;;;24.66;40.54
141;BME280;65;48.778;9.160;2023-08-31T09:24:56;98326.03;;;23.62;44.75
141;BME280;65;48.778;9.160;2023-08-31T09:27:42;98316.59;;;25.33;39.06
141;BME280;65;48.778;9.160;2023-08-31T09:30:35;98313.22;;;23.64;41.65
141;BME280;65;48.778;9.160;2023-08-31T09:33:21;98314.34;;;21.34;45.38
141;BME280;65;48.778;9.160;2023-08-31T09:36:07;98322.72;;;20.18;51.81
141;BME280;65;48.778;9.160;2023-08-31T09:38:56;98321.06;;;19.44;52.73
141;BME280;65;48.778;9.160;2023-08-31T09:41:53;98323.34;;;20.47;47.36
141;BME280;65;48.778;9.160;2023-08-31T09:44:45;98310.09;;;22.81;43.40
141;BME280;65;48.778;9.160;2023-08-31T09:47:35;98307.13;;;26.45;35.71
141;BME280;65;48.778;9.160;2023-08-31T09:50:22;98323.72;;;26.36;32.37
141;BME280;65;48.778;9.160;2023-08-31T09:53:10;98326.66;;;24.26;38.05
141;BME280;65;48.778;9.160;2023-08-31T09:55:57;98316.28;;;22.98;41.94
141;BME280;65;48.778;9.160;2023-08-31T09:58:43;98319.66;;;24.63;37.65
141;BME280;65;48.778;9.160;2023-08-31T10:01:29;98322.38;;;23.55;37.24
141;BME280;65;48.778;9.160;2023-08-31T10:04:16;98323.47;;;24.91;34.04
141;BME280;65;48.778;9.160;2023-08-31T10:07:03;98326.34;;;23.76;40.08
141;BME280;65;48.778;9.160;2023-08-31T10:09:49;98328.25;;;22.30;40.67
141;BME280;65;48.778;9.160;2023-08-31T10:12:37;98328.88;;;22.00;40.60
141;BME280;65;48.778;9.160;2023-08-31T10:15:23;98322.75;;;21.31;40.20
141;BME280;65;48.778;9.160;2023-08-31T10:21:50;98322.09;;;21.37;40.66
141;BME280;65;48.778;9.160;2023-08-31T10:24:58;98324.75;;;21.03;42.05
141;BME280;65;48.778;9.160;2023-08-31T10:27:44;98339.97;;;20.15;43.98
141;BME280;65;48.778;9.160;2023-08-31T10:30:36;98334.50;;;19.72;44.34
141;BME280;65;48.778;9.160;2023-08-31T10:33:22;98335.16;;;19.19;50.11
141;BME280;65;48.778;9.160;2023-08-31T10:36:18;98343.00;;;19.30;49.99
141;BME280;65;48.778;9.160;2023-08-31T10:41:53;98331.72;;;24.38;37.17
141;BME280;65;48.778;9.160;2023-08-31T10:44:41;98336.00;;;23.62;39.45
141;BME280;65;48.778;9.160;2023-08-31T10:47:38;98327.66;;;23.80;38.79
141;BME280;65;48.778;9.160;2023-08-31T10:50:25;98330.28;;;23.49;39.96
141;BME280;65;48.778;9.160;2023-08-31T10:53:11;98330.28;;;22.53;37.95
141;BME280;65;48.778;9.160;2023-08-31T10:55:59;98336.28;;;21.98;40.24
141;BME280;65;48.778;9.160;2023-08-31T10:58:57;98332.28;;;21.00;44.11
141;BME280;65;48.778;9.160;2023-08-31T11:01:58;98346.88;;;20.00;45.38
141;BME280;65;48.778;9.160;2023-08-31T11:07:57;98341.88;;;19.33;49.46
141;BME280;65;48.778;9.160;2023-08-31T11:10:45;98338.34;;;19.32;51.65
141;BME280;65;48.778;9.160;2023-08-31T11:13:31;98333.63;;;19.44;48.53
141;BME280;65;48.778;9.160;2023-08-31T11:16:17;98339.97;;;19.43;49.50
141;BME280;65;48.778;9.160;2023-08-31T11:19:02;98343.66;;;19.42;49.45
141;BME280;65;48.778;9.160;2023-08-31T11:21:50;98334.69;;;19.33;51.07
141;BME280;65;48.778;9.160;2023-08-31T11:24:35;98325.94;;;21.35;44.28
141;BME280;65;48.778;9.160;2023-08-31T11:27:21;98330.56;;;24.24;40.20
141;BME280;65;48.778;9.160;2023-08-31T11:30:16;98316.34;;;26.08;36.54
141;BME280;65;48.778;9.160;2023-08-31T11:35:48;98318.16;;;24.15;36.51
141;BME280;65;48.778;9.160;2023-08-31T11:38:34;98321.88;;;22.80;42.20
141;BME280;65;48.778;9.160;2023-08-31T11:41:19;98314.09;;;21.54;41.93
141;BME280;65;48.778;9.160;2023-08-31T11:44:05;98316.69;;;21.03;46.05
141;BME280;65;48.778;9.160;2023-08-31T11:46:52;98311.22;;;20.61;56.20
141;BME280;65;48.778;9.160;2023-08-31T11:49:40;98322.25;;;20.22;47.66
141;BME280;65;48.778;9.160;2023-08-31T11:52:26;98311.03;;;20.63;44.86
141;BME280;65;48.778;9.160;2023-08-31T11:55:14;98304.25;;;20.50;47.61
141;BME280;65;48.778;9.160;2023-08-31T11:58:00;98303.22;;;20.95;46.89
141;BME280;65;48.778;9.160;2023-08-31T12:00:54;98307.28;;;21.33;47.03
141;BME280;65;48.778;9.160;2023-08-31T12:03:44;98312.69;;;21.07;45.69
141;BME280;65;48.778;9.160;2023-08-31T12:06:30;98296.44;;;21.17;45.59
141;BME280;65;48.778;9.160;2023-08-31T12:09:20;98308.28;;;21.32;46.62
141;BME280;65;48.778;9.160;2023-08-31T12:12:07;98307.19;;;21.17;48.29
141;BME280;65;48.778;9.160;2023-08-31T12:14:53;98309.72;;;20.84;48.00
141;BME280;65;48.778;9.160;2023-08-31T12:17:39;98310.56;;;21.45;43.48
141;BME280;65;48.778;9.160;2023-08-31T12:20:26;98307.69;;;21.97;44.51
141;BME280;65;48.778;9.160;2023-08-31T12:23:14;98309.13;;;21.83;47.83
141;BME280;65;48.778;9.160;2023-08-31T12:26:01;98311.50;;;21.36;45.09
141;BME280;65;48.778;9.160;2023-08-31T12:28:48;98311.13;;;21.31;43.90
141;BME280;65;48.778;9.160;2023-08-31T12:31:33;98300.00;;;20.92;48.87
141;BME280;65;48.778;9.160;2023-08-31T12:34:19;98303.28;;;21.96;44.46
141;BME280;65;48.778;9.160;2023-08-31T12:37:05;98299.25;;;24.60;40.30
141;BME280;65;48.778;9.160;2023-08-31T12:39:51;98292.88;;;24.91;40.15
141;BME280;65;48.778;9.160;2023-08-31T12:42:37;98296.47;;;24.23;37.00
141;BME280;65;48.778;9.160;2023-08-31T12:45:22;98293.22;;;22.87;42.04
141;BME280;65;48.778;9.160;2023-08-31T12:48:08;98295.16;;;21.71;44.78
141;BME280;65;48.778;9.160;2023-08-31T12:50:54;98288.72;;;21.22;44.93
141;BME280;65;48.778;9.160;2023-08-31T12:53:40;98292.91;;;20.82;45.66
141;BME280;65;48.778;9.160;2023-08-31T12:56:26;98306.78;;;20.34;51.63
141;BME280;65;48.778;9.160;2023-08-31T12:59:12;98298.88;;;20.50;48.50
141;BME280;65;48.778;9.160;2023-08-31T13:01:58;98297.66;;;19.92;49.20
141;BME280;65;48.778;9.160;2023-08-31T13:04:43;98309.41;;;19.63;51.86
141;BME280;65;48.778;9.160;2023-08-31T13:07:29;98305.94;;;19.80;50.38
141;BME280;65;48.778;9.160;2023-08-31T13:10:15;98309.31;;;19.82;48.88
141;BME280;65;48.778;9.160;2023-08-31T13:13:01;98313.38;;;19.86;48.62
141;BME280;65;48.778;9.160;2023-08-31T13:15:47;98319.34;;;19.98;52.91
141;BME280;65;48.778;9.160;2023-08-31T13:18:33;98315.81;;;20.15;54.64
141;BME280;65;48.778;9.160;2023-08-31T13:21:19;98305.47;;;20.38;48.22
141;BME280;65;48.778;9.160;2023-08-31T13:24:05;98299.22;;;21.84;45.02
141;BME280;65;48.778;9.160;2023-08-31T13:26:51;98301.50;;;22.61;41.47
141;BME280;65;48.778;9.160;2023-08-31T13:29:36;98290.03;;;23.39;42.38
141;BME280;65;48.778;9.160;2023-08-31T13:32:22;98288.94;;;23.17;45.26
141;BME280;65;48.778;9.160;2023-08-31T13:35:09;98284.59;;;23.47;44.43
141;BME280;65;48.778;9.160;2023-08-31T13:37:55;98274.88;;;24.31;40.29
141;BME280;65;48.778;9.160;2023-08-31T13:40:41;98278.00;;;24.12;40.35
141;BME280;65;48.778;9.160;2023-08-31T13:47:06;98273.72;;;22.28;43.25
141;BME280;65;48.778;9.160;2023-08-31T13:49:51;98276.94;;;22.16;43.79
141;BME280;65;48.778;9.160;2023-08-31T13:52:37;98281.53;;;21.73;45.40
141;BME280;65;48.778;9.160;2023-08-31T13:55:23;98278.19;;;21.29;46.95
141;BME280;65;48.778;9.160;2023-08-31T13:58:08;98279.00;;;20.87;49.15
141;BME280;65;48.778;9.160;2023-08-31T14:00:54;98273.97;;;20.40;48.39
141;BME280;65;48.778;9.160;2023-08-31T14:03:40;98280.78;;;19.99;49.57
141;BME280;65;48.778;9.160;2023-08-31T14:06:27;98277.88;;;19.75;48.70
141;BME280;65;48.778;9.160;2023-08-31T14:09:13;98280.53;;;19.30;52.28
141;BME280;65;48.778;9.160;2023-08-31T14:11:59;98273.84;;;19.16;53.63
141;BME280;65;48.778;9.160;2023-08-31T14:14:45;98282.03;;;19.05;53.01
141;BME280;65;48.778;9.160;2023-08-31T14:17:31;98284.88;;;19.03;52.98
141;BME280;65;48.778;9.160;2023-08-31T14:20:17;98282.38;;;18.92;54.86
141;BME280;65;48.778;9.160;2023-08-31T14:23:03;98292.78;;;18.95;54.87
141;BME280;65;48.778;9.160;2023-08-31T14:25:49;98284.47;;;18.98;54.38
141;BME280;65;48.778;9.160;2023-08-31T14:28:35;98279.66;;;19.02;55.60
141;BME280;65;48.778;9.160;2023-08-31T14:31:20;98280.84;;;18.89;56.89
141;BME280;65;48.778;9.160;2023-08-31T14:34:07;98278.31;;;18.88;57.47
141;BME280;65;48.778;9.160;2023-08-31T14:36:53;98279.28;;;18.87;58.04
141;BME280;65;48.778;9.160;2023-08-31T14:39:42;98276.56;;;18.96;58.97
141;BME280;65;48.778;9.160;2023-08-31T14:42:28;98287.13;;;18.98;59.59
141;BME280;65;48.778;9.160;2023-08-31T14:45:14;98286.19;;;18.89;56.25
141;BME280;65;48.778;9.160;2023-08-31T14:47:59;98288.63;;;18.83;57.46
141;BME280;65;48.778;9.160;2023-08-31T14:50:45;98286.78;;;18.83;59.68
141;BME280;65;48.778;9.160;2023-08-31T14:53:31;98288.31;;;18.86;59.25
141;BME280;65;48.778;9.160;2023-08-31T14:56:16;98289.72;;;18.90;57.86
141;BME280;65;48.778;9.160;2023-08-31T14:59:02;98292.69;;;18.87;57.98
141;BME280;65;48.778;9.160;2023-08-31T15:01:48;98286.75;;;18.93;61.39
141;BME280;65;48.778;9.160;2023-08-31T15:04:34;98290.91;;;19.15;56.37
141;BME280;65;48.778;9.160;2023-08-31T15:07:19;98296.91;;;19.26;55.99
141;BME280;65;48.778;9.160;2023-08-31T15:10:05;98296.47;;;19.31;58.82
141;BME280;65;48.778;9.160;2023-08-31T15:12:51;98297.50;;;19.20;57.85
141;BME280;65;48.778;9.160;2023-08-31T15:15:44;98294.72;;;19.03;54.77
141;BME280;65;48.778;9.160;2023-08-31T15:18:30;98295.63;;;18.93;58.04
141;BME280;65;48.778;9.160;2023-08-31T15:21:16;98290.25;;;18.93;56.86
141;BME280;65;48.778;9.160;2023-08-31T15:24:02;98299.78;;;19.15;59.08
141;BME280;65;48.778;9.160;2023-08-31T15:26:48;98310.59;;;19.51;56.49
141;BME280;65;48.778;9.160;2023-08-31T15:29:34;98309.94;;;19.94;53.91
141;BME280;65;48.778;9.160;2023-08-31T15:32:20;98307.94;;;20.14;53.25
141;BME280;65;48.778;9.160;2023-08-31T15:35:06;98304.25;;;20.15;56.25
141;BME280;65;48.778;9.160;2023-08-31T15:37:52;98310.06;;;20.10;52.73
141;BME280;65;48.778;9.160;2023-08-31T15:40:39;98310.78;;;19.95;55.27
141;BME280;65;48.778;9.160;2023-08-31T15:43:29;98310.75;;;19.49;53.92
141;BME280;65;48.778;9.160;2023-08-31T15:46:15;98312.88;;;19.18;55.18
141;BME280;65;48.778;9.160;2023-08-31T15:49:02;98304.06;;;18.99;57.40
141;BME280;65;48.778;9.160;2023-08-31T15:51:48;98302.59;;;18.77;60.46
141;BME280;65;48.778;9.160;2023-08-31T15:54:33;98304.75;;;18.63;62.11
141;BME280;65;48.778;9.160;2023-08-31T15:57:19;98308.53;;;18.51;60.56
141;BME280;65;48.778;9.160;2023-08-31T16:00:05;98306.16;;;18.39;61.95
141;BME280;65;48.778;9.160;2023-08-31T16:02:51;98303.06;;;18.33;60.58
141;BME280;65;48.778;9.160;2023-08-31T16:05:38;98305.16;;;18.30;61.16
141;BME280;65;48.778;9.160;2023-08-31T16:08:24;98301.38;;;18.32;61.25
141;BME280;65;48.778;9.160;2023-08-31T16:11:09;98299.38;;;18.44;60.27